Zim Luanda — 9HA2029 — position and weather

sailwx.info

Track history (hours):
 
Tides and Currents Weather Stations Pressure Air Temp Water Temp Dewpoint Dewpoint Depression Visibility Wind Speed Wind Dir Waves Ship Positions

Zim Luanda

Last reported at 2014-Oct-20 16:25 UTC. Time now 2014-Oct-21 05:37 UTC.
Position N 38°30' E 015°29'.

Length 260 m; draft 11.4 m.

Type: Ship (hazmat cat A). MMSI: 249830000.

Date/timePositionNaut miles runAvg speedWind from/ knotsBaromVisibWave heightAir tempDewpointWater temp
2014-Oct-20 16:25N 38°30' E 015°29'1011.3
2014-Oct-20 15:31N 38°23' E 015°38'8 8.2
2014-Oct-20 14:30N 38°14' E 015°38'1211.7
2014-Oct-20 13:30N 38°03' E 015°36'37910.7
2014-Oct-19 02:09N 36°59' E 023°26'3112.1
2014-Oct-18 23:33N 37°29' E 023°39'1212.3
2014-Oct-18 22:33N 37°41' E 023°41'1211.8
2014-Oct-18 21:33N 37°52' E 023°36'5 5.1
2014-Oct-18 20:31N 37°57' E 023°35'0 0.0
2014-Oct-18 19:31N 37°57' E 023°35'0 0.0
2014-Oct-18 18:31N 37°57' E 023°35'0 0.0
2014-Oct-18 17:31N 37°57' E 023°35'0 0.0
2014-Oct-18 16:31N 37°57' E 023°35'0 0.0
2014-Oct-18 15:31N 37°57' E 023°35'0 0.0
2014-Oct-18 14:31N 37°57' E 023°35'0 0.0
2014-Oct-18 13:31N 37°57' E 023°35'0 0.0
2014-Oct-18 12:31N 37°57' E 023°35'0 0.0
2014-Oct-18 11:31N 37°57' E 023°35'0 0.0
2014-Oct-18 10:31N 37°57' E 023°35'0 0.0
2014-Oct-18 09:31N 37°57' E 023°35'0 0.0
2014-Oct-18 08:31N 37°57' E 023°35'0 0.0
2014-Oct-18 07:31N 37°57' E 023°35'0 0.0
2014-Oct-18 06:31N 37°57' E 023°35'0 0.0
2014-Oct-18 05:28N 37°57' E 023°35'0 0.3
2014-Oct-18 04:33N 37°57' E 023°35'3 3.0
2014-Oct-18 03:33N 37°54' E 023°35'3 2.8
2014-Oct-18 02:33N 37°52' E 023°38'6 5.8
2014-Oct-18 01:33N 37°47' E 023°41'10 9.6
2014-Oct-18 00:33N 37°39' E 023°48'1111.4
2014-Oct-17 23:33N 37°30' E 023°58'1211.1
2014-Oct-17 22:30N 37°21' E 024°07'3411.5
2014-Oct-17 19:33N 36°55' E 024°34'1312.0
2014-Oct-17 18:27N 36°45' E 024°44'1211.2
2014-Oct-17 17:21N 36°35' E 024°53'911.4
2014-Oct-17 16:33N 36°29' E 025°02'1111.1
2014-Oct-17 15:33N 36°22' E 025°13'1010.4
2014-Oct-17 14:33N 36°15' E 025°22'1110.6
2014-Oct-17 13:33N 36°09' E 025°33'1110.9
2014-Oct-17 12:33N 36°02' E 025°43'1010.4
2014-Oct-17 11:33N 35°56' E 025°53'1110.9
2014-Oct-17 10:33N 35°49' E 026°04'1010.5
2014-Oct-17 09:33N 35°42' E 026°14'1110.7
2014-Oct-17 08:33N 35°35' E 026°24'1110.9
2014-Oct-17 07:33N 35°29' E 026°34'1211.7
2014-Oct-17 06:33N 35°21' E 026°45'1212.1
2014-Oct-17 05:33N 35°16' E 026°59'1212.2
2014-Oct-17 04:33N 35°12' E 027°13'1211.7
2014-Oct-17 03:33N 35°08' E 027°26'1211.7
2014-Oct-17 02:33N 35°04' E 027°40'1411.6
2014-Oct-17 01:21N 34°59' E 027°56'1111.5
2014-Oct-17 00:25N 34°55' E 028°08'11710.5
2014-Oct-16 13:20N 34°14' E 030°21'24111.6
2014-Oct-15 16:32N 32°54' E 034°53'11 0.5
2014-Oct-14 16:28N 32°43' E 034°48'1213.6
2014-Oct-14 15:33N 32°32' E 034°44'1413.9
2014-Oct-14 14:33N 32°18' E 034°39'1413.7
2014-Oct-14 13:31N 32°05' E 034°35'  
Track history (hours):
 
Tides and Currents Weather Stations Pressure Air Temp Water Temp Dewpoint Dewpoint Depression Visibility Wind Speed Wind Dir Waves Ship Positions

Zim Luanda

Last reported at 2014-Oct-20 16:25 UTC. Time now 2014-Oct-21 05:37 UTC.
Position N 38°30' E 015°29'.

Length 260 m; draft 11.4 m.

Type: Ship (hazmat cat A). MMSI: 249830000.

Date/timePositionNaut miles runAvg speedWind from/ knotsBaromVisibWave heightAir tempDewpointWater temp
2014-Oct-20 16:25N 38°30' E 015°29'1011.3
2014-Oct-20 15:31N 38°23' E 015°38'8 8.2
2014-Oct-20 14:30N 38°14' E 015°38'1211.7
2014-Oct-20 13:30N 38°03' E 015°36'37910.7
2014-Oct-19 02:09N 36°59' E 023°26'3112.1
2014-Oct-18 23:33N 37°29' E 023°39'1212.3
2014-Oct-18 22:33N 37°41' E 023°41'1211.8
2014-Oct-18 21:33N 37°52' E 023°36'5 5.1
2014-Oct-18 20:31N 37°57' E 023°35'0 0.0
2014-Oct-18 19:31N 37°57' E 023°35'0 0.0
2014-Oct-18 18:31N 37°57' E 023°35'0 0.0
2014-Oct-18 17:31N 37°57' E 023°35'0 0.0
2014-Oct-18 16:31N 37°57' E 023°35'0 0.0
2014-Oct-18 15:31N 37°57' E 023°35'0 0.0
2014-Oct-18 14:31N 37°57' E 023°35'0 0.0
2014-Oct-18 13:31N 37°57' E 023°35'0 0.0
2014-Oct-18 12:31N 37°57' E 023°35'0 0.0
2014-Oct-18 11:31N 37°57' E 023°35'0 0.0
2014-Oct-18 10:31N 37°57' E 023°35'0 0.0
2014-Oct-18 09:31N 37°57' E 023°35'0 0.0
2014-Oct-18 08:31N 37°57' E 023°35'0 0.0
2014-Oct-18 07:31N 37°57' E 023°35'0 0.0
2014-Oct-18 06:31N 37°57' E 023°35'0 0.0
2014-Oct-18 05:28N 37°57' E 023°35'0 0.3
2014-Oct-18 04:33N 37°57' E 023°35'3 3.0
2014-Oct-18 03:33N 37°54' E 023°35'3 2.8
2014-Oct-18 02:33N 37°52' E 023°38'6 5.8
2014-Oct-18 01:33N 37°47' E 023°41'10 9.6
2014-Oct-18 00:33N 37°39' E 023°48'1111.4
2014-Oct-17 23:33N 37°30' E 023°58'1211.1
2014-Oct-17 22:30N 37°21' E 024°07'3411.5
2014-Oct-17 19:33N 36°55' E 024°34'1312.0
2014-Oct-17 18:27N 36°45' E 024°44'1211.2
2014-Oct-17 17:21N 36°35' E 024°53'911.4
2014-Oct-17 16:33N 36°29' E 025°02'1111.1
2014-Oct-17 15:33N 36°22' E 025°13'1010.4
2014-Oct-17 14:33N 36°15' E 025°22'1110.6
2014-Oct-17 13:33N 36°09' E 025°33'1110.9
2014-Oct-17 12:33N 36°02' E 025°43'1010.4
2014-Oct-17 11:33N 35°56' E 025°53'1110.9
2014-Oct-17 10:33N 35°49' E 026°04'1010.5
2014-Oct-17 09:33N 35°42' E 026°14'1110.7
2014-Oct-17 08:33N 35°35' E 026°24'1110.9
2014-Oct-17 07:33N 35°29' E 026°34'1211.7
2014-Oct-17 06:33N 35°21' E 026°45'1212.1
2014-Oct-17 05:33N 35°16' E 026°59'1212.2
2014-Oct-17 04:33N 35°12' E 027°13'1211.7
2014-Oct-17 03:33N 35°08' E 027°26'1211.7
2014-Oct-17 02:33N 35°04' E 027°40'1411.6
2014-Oct-17 01:21N 34°59' E 027°56'1111.5
2014-Oct-17 00:25N 34°55' E 028°08'11710.5
2014-Oct-16 13:20N 34°14' E 030°21'24111.6
2014-Oct-15 16:32N 32°54' E 034°53'11 0.5
2014-Oct-14 16:28N 32°43' E 034°48'1213.6
2014-Oct-14 15:33N 32°32' E 034°44'1413.9
2014-Oct-14 14:33N 32°18' E 034°39'1413.7
2014-Oct-14 13:31N 32°05' E 034°35'  

Dump ship's entire track history